sensor_id;sensor_type;location;lat;lon;timestamp;P1;durP1;ratioP1;P2;durP2;ratioP2
81135;SDS011;70622;50.886;3.890;2024-03-23T00:56:18;16.83;;;8.05;;
81135;SDS011;70622;50.886;3.890;2024-03-23T00:58:45;19.00;;;8.20;;
81135;SDS011;70622;50.886;3.890;2024-03-23T01:01:11;20.38;;;8.35;;
81135;SDS011;70622;50.886;3.890;2024-03-23T01:03:37;22.92;;;8.60;;
81135;SDS011;70622;50.886;3.890;2024-03-23T01:06:03;19.35;;;8.05;;
81135;SDS011;70622;50.886;3.890;2024-03-23T01:11:07;21.58;;;9.27;;
81135;SDS011;70622;50.886;3.890;2024-03-23T01:13:33;19.65;;;9.20;;
81135;SDS011;70622;50.886;3.890;2024-03-23T01:15:58;16.23;;;8.55;;
81135;SDS011;70622;50.886;3.890;2024-03-23T01:23:35;19.58;;;10.02;;
81135;SDS011;70622;50.886;3.890;2024-03-23T01:31:11;21.42;;;9.65;;
81135;SDS011;70622;50.886;3.890;2024-03-23T01:33:37;22.27;;;9.50;;
81135;SDS011;70622;50.886;3.890;2024-03-23T01:36:02;16.35;;;8.35;;
81135;SDS011;70622;50.886;3.890;2024-03-23T01:38:28;20.73;;;10.25;;
81135;SDS011;70622;50.886;3.890;2024-03-23T01:40:57;21.90;;;9.90;;
81135;SDS011;70622;50.886;3.890;2024-03-23T01:43:23;22.63;;;10.75;;
81135;SDS011;70622;50.886;3.890;2024-03-23T01:45:49;24.27;;;10.90;;
81135;SDS011;70622;50.886;3.890;2024-03-23T01:48:15;22.23;;;9.60;;
81135;SDS011;70622;50.886;3.890;2024-03-23T01:50:40;21.17;;;9.93;;
81135;SDS011;70622;50.886;3.890;2024-03-23T02:06:18;17.00;;;9.80;;
81135;SDS011;70622;50.886;3.890;2024-03-23T02:14:10;18.17;;;8.98;;
81135;SDS011;70622;50.886;3.890;2024-03-23T02:16:36;22.80;;;8.68;;
81135;SDS011;70622;50.886;3.890;2024-03-23T02:21:31;17.60;;;8.30;;
81135;SDS011;70622;50.886;3.890;2024-03-23T02:23:57;19.02;;;8.73;;
81135;SDS011;70622;50.886;3.890;2024-03-23T02:26:24;21.52;;;8.80;;
81135;SDS011;70622;50.886;3.890;2024-03-23T02:33:57;19.45;;;8.88;;
81135;SDS011;70622;50.886;3.890;2024-03-23T02:36:22;18.25;;;8.13;;
81135;SDS011;70622;50.886;3.890;2024-03-23T02:38:49;18.13;;;8.05;;
81135;SDS011;70622;50.886;3.890;2024-03-23T02:41:15;20.92;;;8.10;;
81135;SDS011;70622;50.886;3.890;2024-03-23T02:43:49;13.10;;;7.40;;
81135;SDS011;70622;50.886;3.890;2024-03-23T02:46:15;18.40;;;7.43;;
81135;SDS011;70622;50.886;3.890;2024-03-23T02:48:41;15.68;;;6.88;;
81135;SDS011;70622;50.886;3.890;2024-03-23T02:51:06;18.52;;;6.32;;
81135;SDS011;70622;50.886;3.890;2024-03-23T02:53:32;13.88;;;7.22;;
81135;SDS011;70622;50.886;3.890;2024-03-23T02:55:58;20.02;;;7.28;;
81135;SDS011;70622;50.886;3.890;2024-03-23T02:58:24;14.15;;;6.53;;
81135;SDS011;70622;50.886;3.890;2024-03-23T03:00:49;12.80;;;5.95;;
81135;SDS011;70622;50.886;3.890;2024-03-23T03:03:15;13.13;;;5.70;;
81135;SDS011;70622;50.886;3.890;2024-03-23T03:05:41;10.35;;;5.43;;
81135;SDS011;70622;50.886;3.890;2024-03-23T03:08:09;13.30;;;6.15;;
81135;SDS011;70622;50.886;3.890;2024-03-23T03:10:35;15.90;;;5.35;;
81135;SDS011;70622;50.886;3.890;2024-03-23T03:13:01;13.02;;;5.60;;
81135;SDS011;70622;50.886;3.890;2024-03-23T03:15:27;13.60;;;5.65;;
81135;SDS011;70622;50.886;3.890;2024-03-23T03:17:53;14.55;;;5.82;;
81135;SDS011;70622;50.886;3.890;2024-03-23T03:22:46;8.32;;;5.55;;
81135;SDS011;70622;50.886;3.890;2024-03-23T03:25:12;12.23;;;5.43;;
81135;SDS011;70622;50.886;3.890;2024-03-23T03:27:37;13.88;;;6.20;;
81135;SDS011;70622;50.886;3.890;2024-03-23T03:30:03;11.98;;;6.63;;
81135;SDS011;70622;50.886;3.890;2024-03-23T03:32:31;16.77;;;6.55;;
81135;SDS011;70622;50.886;3.890;2024-03-23T03:35:00;15.38;;;6.82;;
81135;SDS011;70622;50.886;3.890;2024-03-23T03:37:26;15.48;;;6.60;;
81135;SDS011;70622;50.886;3.890;2024-03-23T03:42:28;14.35;;;6.97;;
81135;SDS011;70622;50.886;3.890;2024-03-23T03:44:53;19.90;;;7.85;;
81135;SDS011;70622;50.886;3.890;2024-03-23T03:47:19;12.18;;;6.68;;
81135;SDS011;70622;50.886;3.890;2024-03-23T03:49:45;15.80;;;7.25;;
81135;SDS011;70622;50.886;3.890;2024-03-23T03:54:40;16.55;;;7.18;;
81135;SDS011;70622;50.886;3.890;2024-03-23T03:57:09;11.13;;;5.97;;
81135;SDS011;70622;50.886;3.890;2024-03-23T03:59:36;12.50;;;6.55;;
81135;SDS011;70622;50.886;3.890;2024-03-23T04:02:01;18.10;;;7.65;;
81135;SDS011;70622;50.886;3.890;2024-03-23T04:04:27;19.60;;;6.10;;
81135;SDS011;70622;50.886;3.890;2024-03-23T04:07:01;14.15;;;6.72;;
81135;SDS011;70622;50.886;3.890;2024-03-23T04:09:27;17.50;;;6.63;;
81135;SDS011;70622;50.886;3.890;2024-03-23T04:11:53;14.60;;;5.80;;
81135;SDS011;70622;50.886;3.890;2024-03-23T04:14:18;12.27;;;6.18;;
81135;SDS011;70622;50.886;3.890;2024-03-23T04:16:44;13.80;;;6.82;;
81135;SDS011;70622;50.886;3.890;2024-03-23T04:19:10;12.38;;;5.55;;
81135;SDS011;70622;50.886;3.890;2024-03-23T04:21:36;13.40;;;5.97;;
81135;SDS011;70622;50.886;3.890;2024-03-23T04:24:03;14.95;;;5.50;;
81135;SDS011;70622;50.886;3.890;2024-03-23T04:26:29;15.90;;;6.18;;
81135;SDS011;70622;50.886;3.890;2024-03-23T04:28:54;13.27;;;4.80;;
81135;SDS011;70622;50.886;3.890;2024-03-23T04:31:20;10.77;;;4.97;;
81135;SDS011;70622;50.886;3.890;2024-03-23T04:33:46;12.32;;;3.97;;
81135;SDS011;70622;50.886;3.890;2024-03-23T04:36:12;10.63;;;5.30;;
81135;SDS011;70622;50.886;3.890;2024-03-23T04:38:38;9.73;;;4.10;;
81135;SDS011;70622;50.886;3.890;2024-03-23T04:41:03;16.33;;;5.10;;
81135;SDS011;70622;50.886;3.890;2024-03-23T04:43:29;10.20;;;4.05;;
81135;SDS011;70622;50.886;3.890;2024-03-23T04:45:55;12.85;;;3.80;;
81135;SDS011;70622;50.886;3.890;2024-03-23T04:48:21;9.40;;;3.67;;
81135;SDS011;70622;50.886;3.890;2024-03-23T04:50:48;8.98;;;3.50;;
81135;SDS011;70622;50.886;3.890;2024-03-23T04:53:14;14.68;;;3.53;;
81135;SDS011;70622;50.886;3.890;2024-03-23T04:55:41;12.80;;;3.25;;
81135;SDS011;70622;50.886;3.890;2024-03-23T04:58:07;11.48;;;3.28;;
81135;SDS011;70622;50.886;3.890;2024-03-23T05:00:33;9.75;;;3.40;;
81135;SDS011;70622;50.886;3.890;2024-03-23T05:02:59;8.77;;;3.03;;
81135;SDS011;70622;50.886;3.890;2024-03-23T05:05:24;7.32;;;2.67;;
81135;SDS011;70622;50.886;3.890;2024-03-23T05:07:50;11.50;;;3.00;;
81135;SDS011;70622;50.886;3.890;2024-03-23T05:10:15;8.27;;;3.03;;
81135;SDS011;70622;50.886;3.890;2024-03-23T05:12:41;10.60;;;3.40;;
81135;SDS011;70622;50.886;3.890;2024-03-23T05:15:07;10.90;;;2.75;;
81135;SDS011;70622;50.886;3.890;2024-03-23T05:17:33;9.75;;;2.88;;
81135;SDS011;70622;50.886;3.890;2024-03-23T05:19:59;8.13;;;2.95;;
81135;SDS011;70622;50.886;3.890;2024-03-23T05:22:25;9.48;;;2.55;;
81135;SDS011;70622;50.886;3.890;2024-03-23T05:24:52;20.73;;;3.50;;
81135;SDS011;70622;50.886;3.890;2024-03-23T05:27:18;13.02;;;3.40;;
81135;SDS011;70622;50.886;3.890;2024-03-23T05:29:43;9.27;;;3.00;;
81135;SDS011;70622;50.886;3.890;2024-03-23T05:32:09;17.40;;;3.72;;
81135;SDS011;70622;50.886;3.890;2024-03-23T05:34:35;7.45;;;3.38;;
81135;SDS011;70622;50.886;3.890;2024-03-23T05:37:00;12.05;;;3.30;;
81135;SDS011;70622;50.886;3.890;2024-03-23T05:39:26;8.38;;;2.70;;
81135;SDS011;70622;50.886;3.890;2024-03-23T05:41:52;8.35;;;2.38;;
81135;SDS011;70622;50.886;3.890;2024-03-23T05:44:18;8.98;;;2.38;;
81135;SDS011;70622;50.886;3.890;2024-03-23T05:46:43;4.63;;;2.70;;
81135;SDS011;70622;50.886;3.890;2024-03-23T05:49:13;18.67;;;4.15;;
81135;SDS011;70622;50.886;3.890;2024-03-23T05:51:39;7.13;;;2.67;;
81135;SDS011;70622;50.886;3.890;2024-03-23T05:54:05;9.18;;;3.15;;
81135;SDS011;70622;50.886;3.890;2024-03-23T05:56:30;10.13;;;2.97;;
81135;SDS011;70622;50.886;3.890;2024-03-23T05:58:56;11.13;;;2.95;;
81135;SDS011;70622;50.886;3.890;2024-03-23T06:01:22;9.38;;;2.92;;
81135;SDS011;70622;50.886;3.890;2024-03-23T06:03:48;9.40;;;2.75;;
81135;SDS011;70622;50.886;3.890;2024-03-23T06:06:13;13.63;;;3.53;;
81135;SDS011;70622;50.886;3.890;2024-03-23T06:08:39;7.47;;;2.60;;
81135;SDS011;70622;50.886;3.890;2024-03-23T06:11:05;10.35;;;3.00;;
81135;SDS011;70622;50.886;3.890;2024-03-23T06:13:31;4.97;;;2.17;;
81135;SDS011;70622;50.886;3.890;2024-03-23T06:15:58;10.35;;;3.97;;
81135;SDS011;70622;50.886;3.890;2024-03-23T06:18:25;7.10;;;2.40;;
81135;SDS011;70622;50.886;3.890;2024-03-23T06:20:51;15.65;;;3.15;;
81135;SDS011;70622;50.886;3.890;2024-03-23T06:23:16;10.45;;;2.67;;
81135;SDS011;70622;50.886;3.890;2024-03-23T06:25:46;10.52;;;2.55;;
81135;SDS011;70622;50.886;3.890;2024-03-23T06:28:12;8.73;;;2.92;;
81135;SDS011;70622;50.886;3.890;2024-03-23T06:30:38;8.25;;;2.80;;
81135;SDS011;70622;50.886;3.890;2024-03-23T06:33:04;16.25;;;3.15;;
81135;SDS011;70622;50.886;3.890;2024-03-23T06:35:31;9.60;;;2.70;;
81135;SDS011;70622;50.886;3.890;2024-03-23T06:37:57;10.20;;;3.13;;
81135;SDS011;70622;50.886;3.890;2024-03-23T06:40:23;6.35;;;2.40;;
81135;SDS011;70622;50.886;3.890;2024-03-23T06:42:49;12.75;;;2.70;;
81135;SDS011;70622;50.886;3.890;2024-03-23T06:45:16;14.23;;;2.53;;
81135;SDS011;70622;50.886;3.890;2024-03-23T06:47:44;9.25;;;2.58;;
81135;SDS011;70622;50.886;3.890;2024-03-23T06:50:09;8.02;;;2.10;;
81135;SDS011;70622;50.886;3.890;2024-03-23T06:52:36;9.20;;;2.60;;
81135;SDS011;70622;50.886;3.890;2024-03-23T06:55:02;12.60;;;3.33;;
81135;SDS011;70622;50.886;3.890;2024-03-23T06:57:30;10.60;;;3.10;;
81135;SDS011;70622;50.886;3.890;2024-03-23T06:59:55;10.55;;;2.70;;
81135;SDS011;70622;50.886;3.890;2024-03-23T07:02:21;7.15;;;2.50;;
81135;SDS011;70622;50.886;3.890;2024-03-23T07:04:47;6.57;;;2.33;;
81135;SDS011;70622;50.886;3.890;2024-03-23T07:07:13;9.18;;;3.58;;
81135;SDS011;70622;50.886;3.890;2024-03-23T07:09:38;10.73;;;2.80;;
81135;SDS011;70622;50.886;3.890;2024-03-23T07:12:04;9.20;;;2.70;;
81135;SDS011;70622;50.886;3.890;2024-03-23T07:14:30;8.98;;;2.90;;
81135;SDS011;70622;50.886;3.890;2024-03-23T07:16:56;8.45;;;2.63;;
81135;SDS011;70622;50.886;3.890;2024-03-23T07:19:22;9.32;;;2.55;;
81135;SDS011;70622;50.886;3.890;2024-03-23T07:21:49;6.15;;;2.80;;
81135;SDS011;70622;50.886;3.890;2024-03-23T07:24:15;9.02;;;3.28;;
81135;SDS011;70622;50.886;3.890;2024-03-23T07:26:41;10.45;;;2.53;;
81135;SDS011;70622;50.886;3.890;2024-03-23T07:29:07;7.07;;;2.30;;
81135;SDS011;70622;50.886;3.890;2024-03-23T07:31:32;7.03;;;2.20;;
81135;SDS011;70622;50.886;3.890;2024-03-23T07:33:58;9.88;;;2.35;;
81135;SDS011;70622;50.886;3.890;2024-03-23T07:36:25;5.63;;;2.75;;
81135;SDS011;70622;50.886;3.890;2024-03-23T07:38:50;7.18;;;2.50;;
81135;SDS011;70622;50.886;3.890;2024-03-23T07:41:17;8.80;;;2.75;;
81135;SDS011;70622;50.886;3.890;2024-03-23T07:43:44;10.95;;;2.88;;
81135;SDS011;70622;50.886;3.890;2024-03-23T07:46:10;8.75;;;2.75;;
81135;SDS011;70622;50.886;3.890;2024-03-23T07:48:37;8.27;;;2.10;;
81135;SDS011;70622;50.886;3.890;2024-03-23T07:51:04;7.60;;;2.92;;
81135;SDS011;70622;50.886;3.890;2024-03-23T07:53:31;7.47;;;2.47;;
81135;SDS011;70622;50.886;3.890;2024-03-23T07:55:58;11.05;;;2.28;;
81135;SDS011;70622;50.886;3.890;2024-03-23T07:58:26;7.05;;;2.50;;
81135;SDS011;70622;50.886;3.890;2024-03-23T08:00:53;7.95;;;2.35;;
81135;SDS011;70622;50.886;3.890;2024-03-23T08:03:19;9.65;;;2.28;;
81135;SDS011;70622;50.886;3.890;2024-03-23T08:05:45;7.57;;;2.15;;
81135;SDS011;70622;50.886;3.890;2024-03-23T08:08:11;4.07;;;2.40;;
81135;SDS011;70622;50.886;3.890;2024-03-23T08:10:46;7.45;;;3.00;;
81135;SDS011;70622;50.886;3.890;2024-03-23T08:13:12;9.60;;;2.03;;
81135;SDS011;70622;50.886;3.890;2024-03-23T08:15:38;5.25;;;1.80;;
81135;SDS011;70622;50.886;3.890;2024-03-23T08:18:04;8.00;;;2.08;;
81135;SDS011;70622;50.886;3.890;2024-03-23T08:20:30;7.65;;;2.97;;
81135;SDS011;70622;50.886;3.890;2024-03-23T08:22:55;11.35;;;3.13;;
81135;SDS011;70622;50.886;3.890;2024-03-23T08:25:21;7.55;;;2.53;;
81135;SDS011;70622;50.886;3.890;2024-03-23T08:27:47;6.10;;;2.10;;
81135;SDS011;70622;50.886;3.890;2024-03-23T08:30:12;5.63;;;2.35;;
81135;SDS011;70622;50.886;3.890;2024-03-23T08:32:38;8.10;;;2.47;;
81135;SDS011;70622;50.886;3.890;2024-03-23T08:35:05;7.50;;;2.55;;
81135;SDS011;70622;50.886;3.890;2024-03-23T08:37:31;6.88;;;2.92;;
81135;SDS011;70622;50.886;3.890;2024-03-23T08:39:57;5.65;;;2.13;;
81135;SDS011;70622;50.886;3.890;2024-03-23T08:42:23;5.28;;;2.38;;
81135;SDS011;70622;50.886;3.890;2024-03-23T08:44:50;8.32;;;3.00;;
81135;SDS011;70622;50.886;3.890;2024-03-23T08:47:16;10.68;;;3.33;;
81135;SDS011;70622;50.886;3.890;2024-03-23T08:49:41;6.63;;;3.03;;
81135;SDS011;70622;50.886;3.890;2024-03-23T08:52:08;13.82;;;4.03;;
81135;SDS011;70622;50.886;3.890;2024-03-23T08:54:34;7.03;;;2.78;;
81135;SDS011;70622;50.886;3.890;2024-03-23T08:57:01;11.20;;;3.58;;
81135;SDS011;70622;50.886;3.890;2024-03-23T08:59:27;6.60;;;3.35;;
81135;SDS011;70622;50.886;3.890;2024-03-23T09:01:53;11.82;;;3.72;;
81135;SDS011;70622;50.886;3.890;2024-03-23T09:04:19;13.20;;;3.45;;
81135;SDS011;70622;50.886;3.890;2024-03-23T09:06:44;5.22;;;3.30;;
81135;SDS011;70622;50.886;3.890;2024-03-23T09:09:10;10.90;;;4.10;;
81135;SDS011;70622;50.886;3.890;2024-03-23T09:11:36;8.45;;;3.78;;
81135;SDS011;70622;50.886;3.890;2024-03-23T09:14:02;8.20;;;3.42;;
81135;SDS011;70622;50.886;3.890;2024-03-23T09:16:28;7.45;;;2.72;;
81135;SDS011;70622;50.886;3.890;2024-03-23T09:18:54;12.00;;;3.22;;
81135;SDS011;70622;50.886;3.890;2024-03-23T09:21:19;5.07;;;2.65;;
81135;SDS011;70622;50.886;3.890;2024-03-23T09:23:45;5.03;;;3.10;;
81135;SDS011;70622;50.886;3.890;2024-03-23T09:26:11;7.07;;;2.80;;
81135;SDS011;70622;50.886;3.890;2024-03-23T09:28:36;7.70;;;2.78;;
81135;SDS011;70622;50.886;3.890;2024-03-23T09:31:03;6.35;;;2.90;;
81135;SDS011;70622;50.886;3.890;2024-03-23T09:33:33;10.70;;;3.45;;
81135;SDS011;70622;50.886;3.890;2024-03-23T09:36:03;7.30;;;3.45;;
81135;SDS011;70622;50.886;3.890;2024-03-23T09:38:29;8.13;;;3.60;;
81135;SDS011;70622;50.886;3.890;2024-03-23T09:40:56;9.70;;;3.78;;
81135;SDS011;70622;50.886;3.890;2024-03-23T09:43:22;7.03;;;3.70;;
81135;SDS011;70622;50.886;3.890;2024-03-23T09:45:48;10.20;;;3.58;;
81135;SDS011;70622;50.886;3.890;2024-03-23T09:48:14;7.45;;;3.17;;
81135;SDS011;70622;50.886;3.890;2024-03-23T09:50:41;6.45;;;3.35;;
81135;SDS011;70622;50.886;3.890;2024-03-23T09:53:08;7.07;;;3.13;;
81135;SDS011;70622;50.886;3.890;2024-03-23T09:55:37;11.18;;;3.67;;
81135;SDS011;70622;50.886;3.890;2024-03-23T09:58:04;5.53;;;3.70;;
81135;SDS011;70622;50.886;3.890;2024-03-23T10:00:31;8.73;;;3.40;;
81135;SDS011;70622;50.886;3.890;2024-03-23T10:02:58;6.45;;;3.15;;
81135;SDS011;70622;50.886;3.890;2024-03-23T10:05:26;5.60;;;3.08;;
81135;SDS011;70622;50.886;3.890;2024-03-23T10:07:53;7.30;;;2.83;;
81135;SDS011;70622;50.886;3.890;2024-03-23T10:10:19;6.57;;;3.20;;
81135;SDS011;70622;50.886;3.890;2024-03-23T10:12:47;6.85;;;2.65;;
81135;SDS011;70622;50.886;3.890;2024-03-23T10:15:18;4.78;;;2.78;;
81135;SDS011;70622;50.886;3.890;2024-03-23T10:17:45;5.88;;;2.75;;
81135;SDS011;70622;50.886;3.890;2024-03-23T10:20:11;6.53;;;2.60;;
81135;SDS011;70622;50.886;3.890;2024-03-23T10:22:37;4.15;;;2.65;;
81135;SDS011;70622;50.886;3.890;2024-03-23T10:25:08;7.07;;;2.42;;
81135;SDS011;70622;50.886;3.890;2024-03-23T10:27:36;5.28;;;2.58;;
81135;SDS011;70622;50.886;3.890;2024-03-23T10:30:10;6.10;;;2.15;;
81135;SDS011;70622;50.886;3.890;2024-03-23T10:32:37;12.82;;;2.35;;
81135;SDS011;70622;50.886;3.890;2024-03-23T10:35:19;5.15;;;2.00;;
81135;SDS011;70622;50.886;3.890;2024-03-23T10:37:49;7.22;;;2.55;;
81135;SDS011;70622;50.886;3.890;2024-03-23T10:40:16;8.98;;;1.83;;
81135;SDS011;70622;50.886;3.890;2024-03-23T10:42:43;4.70;;;2.28;;
81135;SDS011;70622;50.886;3.890;2024-03-23T10:45:09;8.77;;;1.83;;
81135;SDS011;70622;50.886;3.890;2024-03-23T10:47:35;4.05;;;1.90;;
81135;SDS011;70622;50.886;3.890;2024-03-23T10:50:04;2.13;;;1.08;;
81135;SDS011;70622;50.886;3.890;2024-03-23T10:52:32;8.02;;;2.65;;
81135;SDS011;70622;50.886;3.890;2024-03-23T10:54:58;4.75;;;1.67;;
81135;SDS011;70622;50.886;3.890;2024-03-23T10:57:27;3.63;;;1.23;;
81135;SDS011;70622;50.886;3.890;2024-03-23T10:59:59;4.95;;;1.55;;
81135;SDS011;70622;50.886;3.890;2024-03-23T11:02:28;3.35;;;0.90;;
81135;SDS011;70622;50.886;3.890;2024-03-23T11:04:54;8.45;;;1.73;;
81135;SDS011;70622;50.886;3.890;2024-03-23T11:10:01;5.53;;;1.75;;
81135;SDS011;70622;50.886;3.890;2024-03-23T11:12:47;5.30;;;1.52;;
81135;SDS011;70622;50.886;3.890;2024-03-23T11:15:13;2.25;;;1.52;;
81135;SDS011;70622;50.886;3.890;2024-03-23T11:17:39;7.65;;;1.55;;
81135;SDS011;70622;50.886;3.890;2024-03-23T11:20:05;2.22;;;1.02;;
81135;SDS011;70622;50.886;3.890;2024-03-23T11:22:39;6.38;;;1.17;;
81135;SDS011;70622;50.886;3.890;2024-03-23T11:25:18;4.95;;;1.10;;
81135;SDS011;70622;50.886;3.890;2024-03-23T11:27:46;2.53;;;0.73;;
81135;SDS011;70622;50.886;3.890;2024-03-23T11:32:54;2.25;;;0.90;;
81135;SDS011;70622;50.886;3.890;2024-03-23T11:35:28;5.38;;;1.20;;
81135;SDS011;70622;50.886;3.890;2024-03-23T11:38:03;4.35;;;0.77;;
81135;SDS011;70622;50.886;3.890;2024-03-23T11:40:30;1.85;;;0.88;;
81135;SDS011;70622;50.886;3.890;2024-03-23T11:42:59;5.57;;;0.93;;
81135;SDS011;70622;50.886;3.890;2024-03-23T11:50:30;2.47;;;0.65;;
81135;SDS011;70622;50.886;3.890;2024-03-23T11:58:27;3.05;;;1.30;;
81135;SDS011;70622;50.886;3.890;2024-03-23T12:03:31;3.78;;;1.23;;
81135;SDS011;70622;50.886;3.890;2024-03-23T12:08:32;4.40;;;1.55;;
81135;SDS011;70622;50.886;3.890;2024-03-23T12:11:16;6.60;;;2.00;;
81135;SDS011;70622;50.886;3.890;2024-03-23T12:13:43;4.88;;;1.35;;
81135;SDS011;70622;50.886;3.890;2024-03-23T12:16:12;6.13;;;1.70;;
81135;SDS011;70622;50.886;3.890;2024-03-23T12:18:40;6.47;;;1.50;;
81135;SDS011;70622;50.886;3.890;2024-03-23T12:21:07;8.57;;;1.35;;
81135;SDS011;70622;50.886;3.890;2024-03-23T12:23:33;7.50;;;1.00;;
81135;SDS011;70622;50.886;3.890;2024-03-23T12:25:59;5.97;;;1.45;;
81135;SDS011;70622;50.886;3.890;2024-03-23T12:28:26;2.33;;;0.90;;
81135;SDS011;70622;50.886;3.890;2024-03-23T12:30:53;4.63;;;1.25;;
81135;SDS011;70622;50.886;3.890;2024-03-23T12:33:20;2.85;;;0.80;;
81135;SDS011;70622;50.886;3.890;2024-03-23T12:35:46;6.00;;;1.73;;
81135;SDS011;70622;50.886;3.890;2024-03-23T12:40:47;4.35;;;1.23;;
81135;SDS011;70622;50.886;3.890;2024-03-23T12:43:17;2.10;;;1.00;;
81135;SDS011;70622;50.886;3.890;2024-03-23T12:48:17;1.92;;;1.23;;
81135;SDS011;70622;50.886;3.890;2024-03-23T12:50:42;2.13;;;0.85;;
81135;SDS011;70622;50.886;3.890;2024-03-23T12:53:08;5.35;;;1.80;;
81135;SDS011;70622;50.886;3.890;2024-03-23T12:55:35;2.72;;;1.27;;
81135;SDS011;70622;50.886;3.890;2024-03-23T12:58:02;4.20;;;1.33;;
81135;SDS011;70622;50.886;3.890;2024-03-23T13:00:28;1.13;;;1.02;;
81135;SDS011;70622;50.886;3.890;2024-03-23T13:02:54;5.47;;;1.20;;
81135;SDS011;70622;50.886;3.890;2024-03-23T13:05:19;4.93;;;0.80;;
81135;SDS011;70622;50.886;3.890;2024-03-23T13:07:45;5.43;;;1.30;;
81135;SDS011;70622;50.886;3.890;2024-03-23T13:10:11;6.03;;;1.08;;
81135;SDS011;70622;50.886;3.890;2024-03-23T13:12:36;3.85;;;1.40;;
81135;SDS011;70622;50.886;3.890;2024-03-23T13:15:02;4.95;;;1.58;;
81135;SDS011;70622;50.886;3.890;2024-03-23T13:17:29;2.47;;;0.93;;
81135;SDS011;70622;50.886;3.890;2024-03-23T13:19:55;3.53;;;0.95;;
81135;SDS011;70622;50.886;3.890;2024-03-23T13:22:21;3.85;;;1.30;;
81135;SDS011;70622;50.886;3.890;2024-03-23T13:24:47;2.83;;;0.95;;
81135;SDS011;70622;50.886;3.890;2024-03-23T13:27:13;4.00;;;1.13;;
81135;SDS011;70622;50.886;3.890;2024-03-23T13:29:38;2.20;;;0.90;;
81135;SDS011;70622;50.886;3.890;2024-03-23T13:32:04;6.85;;;1.13;;
81135;SDS011;70622;50.886;3.890;2024-03-23T13:34:32;3.50;;;1.58;;
81135;SDS011;70622;50.886;3.890;2024-03-23T13:37:00;3.55;;;1.00;;
81135;SDS011;70622;50.886;3.890;2024-03-23T13:39:26;3.72;;;1.40;;
81135;SDS011;70622;50.886;3.890;2024-03-23T13:41:53;9.10;;;1.38;;
81135;SDS011;70622;50.886;3.890;2024-03-23T13:44:19;2.83;;;1.05;;
81135;SDS011;70622;50.886;3.890;2024-03-23T13:46:45;2.58;;;1.10;;
81135;SDS011;70622;50.886;3.890;2024-03-23T13:49:18;5.47;;;1.20;;
81135;SDS011;70622;50.886;3.890;2024-03-23T13:51:54;4.03;;;1.17;;
81135;SDS011;70622;50.886;3.890;2024-03-23T13:54:20;4.72;;;1.73;;
81135;SDS011;70622;50.886;3.890;2024-03-23T13:56:48;1.65;;;1.00;;
81135;SDS011;70622;50.886;3.890;2024-03-23T13:59:14;3.55;;;1.40;;
81135;SDS011;70622;50.886;3.890;2024-03-23T14:01:40;4.72;;;1.40;;
81135;SDS011;70622;50.886;3.890;2024-03-23T14:04:08;3.95;;;1.25;;
81135;SDS011;70622;50.886;3.890;2024-03-23T14:06:33;3.40;;;1.30;;
81135;SDS011;70622;50.886;3.890;2024-03-23T14:08:59;3.17;;;1.42;;
81135;SDS011;70622;50.886;3.890;2024-03-23T14:11:24;7.28;;;1.35;;
81135;SDS011;70622;50.886;3.890;2024-03-23T14:13:52;8.07;;;1.85;;
81135;SDS011;70622;50.886;3.890;2024-03-23T14:16:18;4.45;;;1.35;;
81135;SDS011;70622;50.886;3.890;2024-03-23T14:18:46;3.90;;;0.95;;
81135;SDS011;70622;50.886;3.890;2024-03-23T14:21:12;4.18;;;1.05;;
81135;SDS011;70622;50.886;3.890;2024-03-23T14:23:38;1.92;;;1.27;;
81135;SDS011;70622;50.886;3.890;2024-03-23T14:26:05;4.18;;;1.38;;
81135;SDS011;70622;50.886;3.890;2024-03-23T14:28:31;3.95;;;1.33;;
81135;SDS011;70622;50.886;3.890;2024-03-23T14:30:57;4.35;;;1.33;;
81135;SDS011;70622;50.886;3.890;2024-03-23T14:33:24;3.53;;;1.30;;
81135;SDS011;70622;50.886;3.890;2024-03-23T14:35:51;4.22;;;1.30;;
81135;SDS011;70622;50.886;3.890;2024-03-23T14:38:18;6.25;;;1.40;;
81135;SDS011;70622;50.886;3.890;2024-03-23T14:40:45;3.10;;;1.50;;
81135;SDS011;70622;50.886;3.890;2024-03-23T14:43:11;2.78;;;1.30;;
81135;SDS011;70622;50.886;3.890;2024-03-23T14:45:37;6.82;;;1.63;;
81135;SDS011;70622;50.886;3.890;2024-03-23T14:48:02;12.88;;;2.45;;
81135;SDS011;70622;50.886;3.890;2024-03-23T14:50:28;5.80;;;1.63;;
81135;SDS011;70622;50.886;3.890;2024-03-23T14:52:58;5.22;;;1.55;;
81135;SDS011;70622;50.886;3.890;2024-03-23T14:55:24;2.85;;;1.10;;
81135;SDS011;70622;50.886;3.890;2024-03-23T14:57:50;4.28;;;1.45;;
81135;SDS011;70622;50.886;3.890;2024-03-23T15:00:16;2.65;;;1.60;;
81135;SDS011;70622;50.886;3.890;2024-03-23T15:02:43;3.90;;;1.17;;
81135;SDS011;70622;50.886;3.890;2024-03-23T15:05:10;3.40;;;1.08;;
81135;SDS011;70622;50.886;3.890;2024-03-23T15:07:36;2.63;;;1.00;;
81135;SDS011;70622;50.886;3.890;2024-03-23T15:10:03;3.33;;;1.17;;
81135;SDS011;70622;50.886;3.890;2024-03-23T15:12:30;3.15;;;1.13;;
81135;SDS011;70622;50.886;3.890;2024-03-23T15:14:58;4.15;;;1.20;;
81135;SDS011;70622;50.886;3.890;2024-03-23T15:17:25;3.75;;;1.13;;
81135;SDS011;70622;50.886;3.890;2024-03-23T15:19:50;5.43;;;1.02;;
81135;SDS011;70622;50.886;3.890;2024-03-23T15:22:16;4.90;;;1.25;;
81135;SDS011;70622;50.886;3.890;2024-03-23T15:24:42;2.88;;;1.10;;
81135;SDS011;70622;50.886;3.890;2024-03-23T15:27:08;2.97;;;0.90;;
81135;SDS011;70622;50.886;3.890;2024-03-23T15:29:34;3.88;;;1.40;;
81135;SDS011;70622;50.886;3.890;2024-03-23T15:32:01;3.20;;;0.95;;
81135;SDS011;70622;50.886;3.890;2024-03-23T15:34:28;2.55;;;0.90;;
81135;SDS011;70622;50.886;3.890;2024-03-23T15:36:54;5.05;;;1.13;;
81135;SDS011;70622;50.886;3.890;2024-03-23T15:39:20;3.13;;;0.93;;
81135;SDS011;70622;50.886;3.890;2024-03-23T15:41:47;3.08;;;0.95;;
81135;SDS011;70622;50.886;3.890;2024-03-23T15:44:13;4.45;;;1.13;;
81135;SDS011;70622;50.886;3.890;2024-03-23T15:46:39;3.03;;;0.73;;
81135;SDS011;70622;50.886;3.890;2024-03-23T15:49:05;4.60;;;0.93;;
81135;SDS011;70622;50.886;3.890;2024-03-23T15:51:31;1.77;;;0.70;;
81135;SDS011;70622;50.886;3.890;2024-03-23T15:56:34;5.55;;;1.55;;
81135;SDS011;70622;50.886;3.890;2024-03-23T15:59:00;3.65;;;0.90;;
81135;SDS011;70622;50.886;3.890;2024-03-23T16:01:31;2.83;;;0.80;;
81135;SDS011;70622;50.886;3.890;2024-03-23T16:04:01;5.10;;;0.77;;
81135;SDS011;70622;50.886;3.890;2024-03-23T16:06:27;2.92;;;1.00;;
81135;SDS011;70622;50.886;3.890;2024-03-23T16:08:52;2.78;;;1.10;;
81135;SDS011;70622;50.886;3.890;2024-03-23T16:11:18;1.65;;;0.70;;
81135;SDS011;70622;50.886;3.890;2024-03-23T16:13:45;5.80;;;1.30;;
81135;SDS011;70622;50.886;3.890;2024-03-23T16:16:11;2.85;;;0.93;;
81135;SDS011;70622;50.886;3.890;2024-03-23T16:18:39;5.35;;;1.05;;
81135;SDS011;70622;50.886;3.890;2024-03-23T16:21:05;3.38;;;0.82;;
81135;SDS011;70622;50.886;3.890;2024-03-23T16:23:32;2.25;;;1.10;;
81135;SDS011;70622;50.886;3.890;2024-03-23T16:25:59;3.75;;;1.00;;
81135;SDS011;70622;50.886;3.890;2024-03-23T16:28:34;2.65;;;1.02;;
81135;SDS011;70622;50.886;3.890;2024-03-23T16:31:01;5.82;;;1.33;;
81135;SDS011;70622;50.886;3.890;2024-03-23T16:33:28;2.28;;;1.08;;
81135;SDS011;70622;50.886;3.890;2024-03-23T16:35:56;4.18;;;1.30;;
81135;SDS011;70622;50.886;3.890;2024-03-23T16:38:26;4.00;;;1.27;;
81135;SDS011;70622;50.886;3.890;2024-03-23T16:40:57;8.00;;;1.92;;
81135;SDS011;70622;50.886;3.890;2024-03-23T16:43:50;4.63;;;1.42;;
81135;SDS011;70622;50.886;3.890;2024-03-23T16:46:16;2.92;;;1.25;;
81135;SDS011;70622;50.886;3.890;2024-03-23T16:48:42;5.13;;;1.80;;
81135;SDS011;70622;50.886;3.890;2024-03-23T16:51:11;7.32;;;1.90;;